Bathurst, Canada
Current Conditions -  °F | °C
As of 1:00 AM on Thursday 23 Oct 2014 (Local Time) from CZBF Reporting Station
Overcast Overcast  
Wind Chill: 37°   Ceiling: 1100
Heat Index: 43°   Visibility: 15mi
Dew Point: 37°   Wind: 10mph
Humidity: 81%   Direction: 60°ENE
Pressure: 30.41"   Gusts: NA
Location:  47.62°N, 65.65°W
Report Text: CZBF 230400Z 06009KT 15SM OVC011 06/03 A3041 RMK SC8 SLP299
Loading
Personal Weather Stations






























Interactive Weather Map
Tropical Storm Tracking
New forecast layout! Learn more

10-Day Weather Forecast

Advertisements
Track Severe Weather on mobile